sensor_id;sensor_type;location;lat;lon;timestamp;temperature;humidity
23579;DHT22;11967;50.852;4.400;2024-01-16T00:00:48;5.30;99.90
23579;DHT22;11967;50.852;4.400;2024-01-16T00:03:13;5.20;99.90
23579;DHT22;11967;50.852;4.400;2024-01-16T00:05:40;5.20;99.90
23579;DHT22;11967;50.852;4.400;2024-01-16T00:08:05;5.20;99.90
23579;DHT22;11967;50.852;4.400;2024-01-16T00:10:31;5.20;99.90
23579;DHT22;11967;50.852;4.400;2024-01-16T00:12:56;5.20;99.90
23579;DHT22;11967;50.852;4.400;2024-01-16T00:15:22;5.20;99.90
23579;DHT22;11967;50.852;4.400;2024-01-16T00:17:48;5.20;99.90
23579;DHT22;11967;50.852;4.400;2024-01-16T00:20:14;5.10;99.90
23579;DHT22;11967;50.852;4.400;2024-01-16T00:22:39;5.10;99.90
23579;DHT22;11967;50.852;4.400;2024-01-16T00:25:05;5.00;99.90
23579;DHT22;11967;50.852;4.400;2024-01-16T00:27:31;4.90;99.90
23579;DHT22;11967;50.852;4.400;2024-01-16T00:29:57;4.90;99.90
23579;DHT22;11967;50.852;4.400;2024-01-16T00:32:22;4.90;99.90
23579;DHT22;11967;50.852;4.400;2024-01-16T00:34:48;4.80;99.90
23579;DHT22;11967;50.852;4.400;2024-01-16T00:37:13;4.70;99.90
23579;DHT22;11967;50.852;4.400;2024-01-16T00:39:39;4.70;99.90
23579;DHT22;11967;50.852;4.400;2024-01-16T00:42:04;4.80;99.90
23579;DHT22;11967;50.852;4.400;2024-01-16T00:44:31;4.80;99.90
23579;DHT22;11967;50.852;4.400;2024-01-16T00:46:57;4.90;99.90
23579;DHT22;11967;50.852;4.400;2024-01-16T00:49:22;4.90;99.90
23579;DHT22;11967;50.852;4.400;2024-01-16T00:51:49;4.80;99.90
23579;DHT22;11967;50.852;4.400;2024-01-16T00:54:15;4.90;99.90
23579;DHT22;11967;50.852;4.400;2024-01-16T00:56:41;4.90;99.90
23579;DHT22;11967;50.852;4.400;2024-01-16T00:59:07;4.90;99.90
23579;DHT22;11967;50.852;4.400;2024-01-16T01:01:33;4.90;99.90
23579;DHT22;11967;50.852;4.400;2024-01-16T01:03:58;4.90;99.90
23579;DHT22;11967;50.852;4.400;2024-01-16T01:06:24;4.80;99.90
23579;DHT22;11967;50.852;4.400;2024-01-16T01:08:50;4.90;99.90
23579;DHT22;11967;50.852;4.400;2024-01-16T01:11:16;4.90;99.90
23579;DHT22;11967;50.852;4.400;2024-01-16T01:13:42;5.10;99.90
23579;DHT22;11967;50.852;4.400;2024-01-16T01:16:07;4.90;99.90
23579;DHT22;11967;50.852;4.400;2024-01-16T01:18:34;4.90;99.90
23579;DHT22;11967;50.852;4.400;2024-01-16T01:21:01;4.90;99.90
23579;DHT22;11967;50.852;4.400;2024-01-16T01:23:27;4.80;99.90
23579;DHT22;11967;50.852;4.400;2024-01-16T01:25:52;4.80;99.90
23579;DHT22;11967;50.852;4.400;2024-01-16T01:28:18;4.80;99.90
23579;DHT22;11967;50.852;4.400;2024-01-16T01:30:44;4.80;99.90
23579;DHT22;11967;50.852;4.400;2024-01-16T01:33:09;4.90;99.90
23579;DHT22;11967;50.852;4.400;2024-01-16T01:35:37;4.90;99.90
23579;DHT22;11967;50.852;4.400;2024-01-16T01:38:02;4.80;99.90
23579;DHT22;11967;50.852;4.400;2024-01-16T01:40:28;4.80;99.90
23579;DHT22;11967;50.852;4.400;2024-01-16T01:42:54;4.70;99.90
23579;DHT22;11967;50.852;4.400;2024-01-16T01:45:19;4.70;99.90
23579;DHT22;11967;50.852;4.400;2024-01-16T01:47:45;4.70;99.90
23579;DHT22;11967;50.852;4.400;2024-01-16T01:50:13;4.80;99.90
23579;DHT22;11967;50.852;4.400;2024-01-16T01:52:40;4.70;99.90
23579;DHT22;11967;50.852;4.400;2024-01-16T01:55:10;4.70;99.90
23579;DHT22;11967;50.852;4.400;2024-01-16T01:57:37;4.70;99.90
23579;DHT22;11967;50.852;4.400;2024-01-16T02:00:03;4.80;99.90
23579;DHT22;11967;50.852;4.400;2024-01-16T02:02:30;4.80;99.90
23579;DHT22;11967;50.852;4.400;2024-01-16T02:04:56;4.70;99.90
23579;DHT22;11967;50.852;4.400;2024-01-16T02:07:22;4.70;99.90
23579;DHT22;11967;50.852;4.400;2024-01-16T02:09:49;4.60;99.90
23579;DHT22;11967;50.852;4.400;2024-01-16T02:12:15;4.70;99.90
23579;DHT22;11967;50.852;4.400;2024-01-16T02:14:41;4.60;99.90
23579;DHT22;11967;50.852;4.400;2024-01-16T02:17:06;4.60;99.90
23579;DHT22;11967;50.852;4.400;2024-01-16T02:19:32;4.60;99.90
23579;DHT22;11967;50.852;4.400;2024-01-16T02:22:00;4.50;99.90
23579;DHT22;11967;50.852;4.400;2024-01-16T02:24:29;4.50;99.90
23579;DHT22;11967;50.852;4.400;2024-01-16T02:26:55;4.50;99.90
23579;DHT22;11967;50.852;4.400;2024-01-16T02:29:21;4.60;99.90
23579;DHT22;11967;50.852;4.400;2024-01-16T02:31:47;4.70;99.90
23579;DHT22;11967;50.852;4.400;2024-01-16T02:34:12;4.70;99.90
23579;DHT22;11967;50.852;4.400;2024-01-16T02:36:38;4.70;99.90
23579;DHT22;11967;50.852;4.400;2024-01-16T02:39:04;4.70;99.90
23579;DHT22;11967;50.852;4.400;2024-01-16T02:41:32;4.70;99.90
23579;DHT22;11967;50.852;4.400;2024-01-16T02:43:57;4.80;99.90
23579;DHT22;11967;50.852;4.400;2024-01-16T02:46:23;4.70;99.90
23579;DHT22;11967;50.852;4.400;2024-01-16T02:48:48;4.70;99.90
23579;DHT22;11967;50.852;4.400;2024-01-16T02:51:14;4.70;99.90
23579;DHT22;11967;50.852;4.400;2024-01-16T02:53:41;4.70;99.90
23579;DHT22;11967;50.852;4.400;2024-01-16T02:56:08;4.70;99.90
23579;DHT22;11967;50.852;4.400;2024-01-16T02:58:34;4.70;99.90
23579;DHT22;11967;50.852;4.400;2024-01-16T03:00:59;4.70;99.90
23579;DHT22;11967;50.852;4.400;2024-01-16T03:03:26;4.70;99.90
23579;DHT22;11967;50.852;4.400;2024-01-16T03:05:52;4.70;99.90
23579;DHT22;11967;50.852;4.400;2024-01-16T03:08:17;4.80;99.90
23579;DHT22;11967;50.852;4.400;2024-01-16T03:10:43;4.70;99.90
23579;DHT22;11967;50.852;4.400;2024-01-16T03:13:08;4.70;99.90
23579;DHT22;11967;50.852;4.400;2024-01-16T03:15:34;4.70;99.90
23579;DHT22;11967;50.852;4.400;2024-01-16T03:18:00;4.80;99.90
23579;DHT22;11967;50.852;4.400;2024-01-16T03:20:27;4.70;99.90
23579;DHT22;11967;50.852;4.400;2024-01-16T03:22:53;4.60;99.90
23579;DHT22;11967;50.852;4.400;2024-01-16T03:25:19;4.60;99.90
23579;DHT22;11967;50.852;4.400;2024-01-16T03:27:45;4.70;99.90
23579;DHT22;11967;50.852;4.400;2024-01-16T03:30:11;4.80;99.90
23579;DHT22;11967;50.852;4.400;2024-01-16T03:32:37;4.70;99.90
23579;DHT22;11967;50.852;4.400;2024-01-16T03:35:04;4.60;99.90
23579;DHT22;11967;50.852;4.400;2024-01-16T03:37:30;4.70;99.90
23579;DHT22;11967;50.852;4.400;2024-01-16T03:39:56;4.70;99.90
23579;DHT22;11967;50.852;4.400;2024-01-16T03:42:22;4.60;99.90
23579;DHT22;11967;50.852;4.400;2024-01-16T03:44:48;4.60;99.90
23579;DHT22;11967;50.852;4.400;2024-01-16T03:47:15;4.50;99.90
23579;DHT22;11967;50.852;4.400;2024-01-16T03:49:40;4.60;99.90
23579;DHT22;11967;50.852;4.400;2024-01-16T03:52:06;4.70;99.90
23579;DHT22;11967;50.852;4.400;2024-01-16T03:54:32;4.60;99.90
23579;DHT22;11967;50.852;4.400;2024-01-16T03:56:57;4.60;99.90
23579;DHT22;11967;50.852;4.400;2024-01-16T03:59:23;4.60;99.90
23579;DHT22;11967;50.852;4.400;2024-01-16T04:01:49;4.50;99.90
23579;DHT22;11967;50.852;4.400;2024-01-16T04:04:15;4.50;99.90
23579;DHT22;11967;50.852;4.400;2024-01-16T04:06:41;4.50;99.90
23579;DHT22;11967;50.852;4.400;2024-01-16T04:09:07;4.50;99.90
23579;DHT22;11967;50.852;4.400;2024-01-16T04:11:34;4.40;99.90
23579;DHT22;11967;50.852;4.400;2024-01-16T04:14:00;4.40;99.90
23579;DHT22;11967;50.852;4.400;2024-01-16T04:16:25;4.50;99.90
23579;DHT22;11967;50.852;4.400;2024-01-16T04:18:52;4.40;99.90
23579;DHT22;11967;50.852;4.400;2024-01-16T04:21:17;4.40;99.90
23579;DHT22;11967;50.852;4.400;2024-01-16T04:23:43;4.40;99.90
23579;DHT22;11967;50.852;4.400;2024-01-16T04:26:09;4.30;99.90
23579;DHT22;11967;50.852;4.400;2024-01-16T04:28:35;4.40;99.90
23579;DHT22;11967;50.852;4.400;2024-01-16T04:31:04;4.40;99.90
23579;DHT22;11967;50.852;4.400;2024-01-16T04:33:30;4.20;99.90
23579;DHT22;11967;50.852;4.400;2024-01-16T04:35:56;4.30;99.90
23579;DHT22;11967;50.852;4.400;2024-01-16T04:38:22;4.30;99.90
23579;DHT22;11967;50.852;4.400;2024-01-16T04:40:47;4.40;99.90
23579;DHT22;11967;50.852;4.400;2024-01-16T04:43:13;4.40;99.90
23579;DHT22;11967;50.852;4.400;2024-01-16T04:45:39;4.40;99.90
23579;DHT22;11967;50.852;4.400;2024-01-16T04:48:04;4.40;99.90
23579;DHT22;11967;50.852;4.400;2024-01-16T04:50:30;4.40;99.90
23579;DHT22;11967;50.852;4.400;2024-01-16T04:52:59;4.40;99.90
23579;DHT22;11967;50.852;4.400;2024-01-16T04:55:28;4.30;99.90
23579;DHT22;11967;50.852;4.400;2024-01-16T04:57:57;4.30;99.90
23579;DHT22;11967;50.852;4.400;2024-01-16T05:00:23;4.30;99.90
23579;DHT22;11967;50.852;4.400;2024-01-16T05:02:49;4.40;99.90
23579;DHT22;11967;50.852;4.400;2024-01-16T05:05:15;4.40;99.90
23579;DHT22;11967;50.852;4.400;2024-01-16T05:07:41;4.50;99.90
23579;DHT22;11967;50.852;4.400;2024-01-16T05:10:10;4.50;99.90
23579;DHT22;11967;50.852;4.400;2024-01-16T05:12:38;4.50;99.90
23579;DHT22;11967;50.852;4.400;2024-01-16T05:15:05;4.40;99.90
23579;DHT22;11967;50.852;4.400;2024-01-16T05:17:30;4.40;99.90
23579;DHT22;11967;50.852;4.400;2024-01-16T05:19:56;4.40;99.90
23579;DHT22;11967;50.852;4.400;2024-01-16T05:22:22;4.40;99.90
23579;DHT22;11967;50.852;4.400;2024-01-16T05:24:47;4.40;99.90
23579;DHT22;11967;50.852;4.400;2024-01-16T05:27:13;4.40;99.90
23579;DHT22;11967;50.852;4.400;2024-01-16T05:29:42;4.40;99.90
23579;DHT22;11967;50.852;4.400;2024-01-16T05:32:08;4.30;99.90
23579;DHT22;11967;50.852;4.400;2024-01-16T05:34:34;4.40;99.90
23579;DHT22;11967;50.852;4.400;2024-01-16T05:37:00;4.40;99.90
23579;DHT22;11967;50.852;4.400;2024-01-16T05:39:25;4.30;99.90
23579;DHT22;11967;50.852;4.400;2024-01-16T05:41:51;4.30;99.90
23579;DHT22;11967;50.852;4.400;2024-01-16T05:44:17;4.20;99.90
23579;DHT22;11967;50.852;4.400;2024-01-16T05:46:43;4.20;99.90
23579;DHT22;11967;50.852;4.400;2024-01-16T05:49:08;4.30;99.90
23579;DHT22;11967;50.852;4.400;2024-01-16T05:51:34;4.40;99.90
23579;DHT22;11967;50.852;4.400;2024-01-16T05:53:59;4.50;99.90
23579;DHT22;11967;50.852;4.400;2024-01-16T05:56:25;4.30;99.90
23579;DHT22;11967;50.852;4.400;2024-01-16T05:58:51;4.10;99.90
23579;DHT22;11967;50.852;4.400;2024-01-16T06:01:17;4.00;99.90
23579;DHT22;11967;50.852;4.400;2024-01-16T06:03:43;4.00;99.90
23579;DHT22;11967;50.852;4.400;2024-01-16T06:06:11;4.00;99.90
23579;DHT22;11967;50.852;4.400;2024-01-16T06:08:37;4.10;99.90
23579;DHT22;11967;50.852;4.400;2024-01-16T06:11:02;4.10;99.90
23579;DHT22;11967;50.852;4.400;2024-01-16T06:13:28;4.20;99.90
23579;DHT22;11967;50.852;4.400;2024-01-16T06:15:55;4.20;99.90
23579;DHT22;11967;50.852;4.400;2024-01-16T06:18:21;4.20;99.90
23579;DHT22;11967;50.852;4.400;2024-01-16T06:20:46;4.20;99.90
23579;DHT22;11967;50.852;4.400;2024-01-16T06:23:12;4.20;99.90
23579;DHT22;11967;50.852;4.400;2024-01-16T06:25:38;4.30;99.90
23579;DHT22;11967;50.852;4.400;2024-01-16T06:28:04;4.20;99.90
23579;DHT22;11967;50.852;4.400;2024-01-16T06:30:52;4.20;99.90
23579;DHT22;11967;50.852;4.400;2024-01-16T06:33:18;4.20;99.90
23579;DHT22;11967;50.852;4.400;2024-01-16T06:35:43;4.20;99.90
23579;DHT22;11967;50.852;4.400;2024-01-16T06:38:09;4.20;99.90
23579;DHT22;11967;50.852;4.400;2024-01-16T06:40:34;4.30;99.90
23579;DHT22;11967;50.852;4.400;2024-01-16T06:43:04;4.40;99.90
23579;DHT22;11967;50.852;4.400;2024-01-16T06:45:31;4.40;99.90
23579;DHT22;11967;50.852;4.400;2024-01-16T06:47:57;4.50;99.90
23579;DHT22;11967;50.852;4.400;2024-01-16T06:50:24;4.50;99.90
23579;DHT22;11967;50.852;4.400;2024-01-16T06:52:49;4.50;99.90
23579;DHT22;11967;50.852;4.400;2024-01-16T06:55:15;4.40;99.90
23579;DHT22;11967;50.852;4.400;2024-01-16T06:57:41;4.40;99.90
23579;DHT22;11967;50.852;4.400;2024-01-16T07:00:06;4.30;99.90
23579;DHT22;11967;50.852;4.400;2024-01-16T07:02:33;4.20;99.90
23579;DHT22;11967;50.852;4.400;2024-01-16T07:04:58;4.10;99.90
23579;DHT22;11967;50.852;4.400;2024-01-16T07:07:24;4.10;99.90
23579;DHT22;11967;50.852;4.400;2024-01-16T07:09:50;4.00;99.90
23579;DHT22;11967;50.852;4.400;2024-01-16T07:12:15;4.10;99.90
23579;DHT22;11967;50.852;4.400;2024-01-16T07:14:44;4.20;99.90
23579;DHT22;11967;50.852;4.400;2024-01-16T07:17:10;4.10;99.90
23579;DHT22;11967;50.852;4.400;2024-01-16T07:19:35;4.00;99.90
23579;DHT22;11967;50.852;4.400;2024-01-16T07:22:01;4.10;99.90
23579;DHT22;11967;50.852;4.400;2024-01-16T07:24:27;4.10;99.90
23579;DHT22;11967;50.852;4.400;2024-01-16T07:26:53;4.00;99.90
23579;DHT22;11967;50.852;4.400;2024-01-16T07:29:19;4.00;99.90
23579;DHT22;11967;50.852;4.400;2024-01-16T07:31:49;4.00;99.90
23579;DHT22;11967;50.852;4.400;2024-01-16T07:34:14;3.90;99.90
23579;DHT22;11967;50.852;4.400;2024-01-16T07:36:45;4.00;99.90
23579;DHT22;11967;50.852;4.400;2024-01-16T07:39:11;4.00;99.90
23579;DHT22;11967;50.852;4.400;2024-01-16T07:41:36;3.90;99.90
23579;DHT22;11967;50.852;4.400;2024-01-16T07:44:02;3.90;99.90
23579;DHT22;11967;50.852;4.400;2024-01-16T07:46:28;4.00;99.90
23579;DHT22;11967;50.852;4.400;2024-01-16T07:48:54;4.00;99.90
23579;DHT22;11967;50.852;4.400;2024-01-16T07:51:19;3.90;99.90
23579;DHT22;11967;50.852;4.400;2024-01-16T07:53:45;3.80;99.90
23579;DHT22;11967;50.852;4.400;2024-01-16T07:56:11;3.90;99.90
23579;DHT22;11967;50.852;4.400;2024-01-16T07:58:37;3.80;99.90
23579;DHT22;11967;50.852;4.400;2024-01-16T08:01:03;3.90;99.90
23579;DHT22;11967;50.852;4.400;2024-01-16T08:03:28;3.90;99.90
23579;DHT22;11967;50.852;4.400;2024-01-16T08:05:54;3.90;99.90
23579;DHT22;11967;50.852;4.400;2024-01-16T08:08:21;4.00;99.90
23579;DHT22;11967;50.852;4.400;2024-01-16T08:10:46;4.00;99.90
23579;DHT22;11967;50.852;4.400;2024-01-16T08:13:12;3.90;99.90
23579;DHT22;11967;50.852;4.400;2024-01-16T08:15:38;4.00;99.90
23579;DHT22;11967;50.852;4.400;2024-01-16T08:18:04;4.00;99.90
23579;DHT22;11967;50.852;4.400;2024-01-16T08:20:30;4.10;99.90
23579;DHT22;11967;50.852;4.400;2024-01-16T08:22:55;4.10;99.90
23579;DHT22;11967;50.852;4.400;2024-01-16T08:25:21;4.20;99.90
23579;DHT22;11967;50.852;4.400;2024-01-16T08:27:47;4.10;99.90
23579;DHT22;11967;50.852;4.400;2024-01-16T08:30:12;4.10;99.90
23579;DHT22;11967;50.852;4.400;2024-01-16T08:32:38;4.00;99.90
23579;DHT22;11967;50.852;4.400;2024-01-16T08:35:04;4.30;99.90
23579;DHT22;11967;50.852;4.400;2024-01-16T08:37:32;4.40;99.90
23579;DHT22;11967;50.852;4.400;2024-01-16T08:39:58;4.40;99.90
23579;DHT22;11967;50.852;4.400;2024-01-16T08:42:23;4.50;99.90
23579;DHT22;11967;50.852;4.400;2024-01-16T08:44:49;4.50;99.90
23579;DHT22;11967;50.852;4.400;2024-01-16T08:47:15;4.40;99.90
23579;DHT22;11967;50.852;4.400;2024-01-16T08:49:41;4.40;99.90
23579;DHT22;11967;50.852;4.400;2024-01-16T08:52:07;4.40;99.90
23579;DHT22;11967;50.852;4.400;2024-01-16T08:54:32;4.30;99.90
23579;DHT22;11967;50.852;4.400;2024-01-16T08:56:58;4.30;99.90
23579;DHT22;11967;50.852;4.400;2024-01-16T08:59:24;4.20;99.90
23579;DHT22;11967;50.852;4.400;2024-01-16T09:01:49;4.20;99.90
23579;DHT22;11967;50.852;4.400;2024-01-16T09:04:16;4.30;99.90
23579;DHT22;11967;50.852;4.400;2024-01-16T09:06:42;4.20;99.90
23579;DHT22;11967;50.852;4.400;2024-01-16T09:09:07;4.30;99.90
23579;DHT22;11967;50.852;4.400;2024-01-16T09:11:34;4.30;99.90
23579;DHT22;11967;50.852;4.400;2024-01-16T09:14:00;4.40;99.90
23579;DHT22;11967;50.852;4.400;2024-01-16T09:16:25;4.70;99.90
23579;DHT22;11967;50.852;4.400;2024-01-16T09:18:51;4.60;99.90
23579;DHT22;11967;50.852;4.400;2024-01-16T09:21:17;4.50;99.90
23579;DHT22;11967;50.852;4.400;2024-01-16T09:23:42;4.50;99.90
23579;DHT22;11967;50.852;4.400;2024-01-16T09:26:09;4.40;99.90
23579;DHT22;11967;50.852;4.400;2024-01-16T09:28:36;4.50;99.90
23579;DHT22;11967;50.852;4.400;2024-01-16T09:31:01;4.60;99.90
23579;DHT22;11967;50.852;4.400;2024-01-16T09:33:27;4.40;99.90
23579;DHT22;11967;50.852;4.400;2024-01-16T09:35:53;4.50;99.90
23579;DHT22;11967;50.852;4.400;2024-01-16T09:38:19;4.50;99.90
23579;DHT22;11967;50.852;4.400;2024-01-16T09:40:44;4.50;99.90
23579;DHT22;11967;50.852;4.400;2024-01-16T09:43:12;4.50;99.90
23579;DHT22;11967;50.852;4.400;2024-01-16T09:45:38;4.50;99.90
23579;DHT22;11967;50.852;4.400;2024-01-16T09:48:05;4.30;99.90
23579;DHT22;11967;50.852;4.400;2024-01-16T09:50:31;4.40;99.90
23579;DHT22;11967;50.852;4.400;2024-01-16T09:52:57;4.40;99.90
23579;DHT22;11967;50.852;4.400;2024-01-16T09:55:23;4.30;99.90
23579;DHT22;11967;50.852;4.400;2024-01-16T09:57:52;4.40;99.90
23579;DHT22;11967;50.852;4.400;2024-01-16T10:00:18;4.60;99.90
23579;DHT22;11967;50.852;4.400;2024-01-16T10:02:45;4.70;99.90
23579;DHT22;11967;50.852;4.400;2024-01-16T10:05:12;4.80;99.90
23579;DHT22;11967;50.852;4.400;2024-01-16T10:07:40;5.00;99.90
23579;DHT22;11967;50.852;4.400;2024-01-16T10:10:06;5.20;99.90
23579;DHT22;11967;50.852;4.400;2024-01-16T10:12:36;5.50;99.90
23579;DHT22;11967;50.852;4.400;2024-01-16T10:15:07;5.60;99.90
23579;DHT22;11967;50.852;4.400;2024-01-16T10:17:43;5.80;99.90
23579;DHT22;11967;50.852;4.400;2024-01-16T10:20:10;6.20;99.90
23579;DHT22;11967;50.852;4.400;2024-01-16T10:22:51;6.50;99.90
23579;DHT22;11967;50.852;4.400;2024-01-16T10:25:17;6.50;99.90
23579;DHT22;11967;50.852;4.400;2024-01-16T10:27:45;6.60;99.90
23579;DHT22;11967;50.852;4.400;2024-01-16T10:30:11;6.60;99.90
23579;DHT22;11967;50.852;4.400;2024-01-16T10:32:41;6.60;99.90
23579;DHT22;11967;50.852;4.400;2024-01-16T10:35:13;6.60;99.90
23579;DHT22;11967;50.852;4.400;2024-01-16T10:37:50;6.50;99.90
23579;DHT22;11967;50.852;4.400;2024-01-16T10:40:21;6.30;99.90
23579;DHT22;11967;50.852;4.400;2024-01-16T10:42:57;6.10;99.90
23579;DHT22;11967;50.852;4.400;2024-01-16T10:45:23;6.10;99.90
23579;DHT22;11967;50.852;4.400;2024-01-16T10:48:00;6.20;99.90
23579;DHT22;11967;50.852;4.400;2024-01-16T10:50:25;6.30;99.90
23579;DHT22;11967;50.852;4.400;2024-01-16T10:52:52;6.40;99.90
23579;DHT22;11967;50.852;4.400;2024-01-16T10:55:22;6.60;99.90
23579;DHT22;11967;50.852;4.400;2024-01-16T10:57:51;6.70;99.90
23579;DHT22;11967;50.852;4.400;2024-01-16T11:00:21;6.70;99.90
23579;DHT22;11967;50.852;4.400;2024-01-16T11:02:58;6.90;99.90
23579;DHT22;11967;50.852;4.400;2024-01-16T11:05:27;6.80;99.90
23579;DHT22;11967;50.852;4.400;2024-01-16T11:07:55;6.80;99.90
23579;DHT22;11967;50.852;4.400;2024-01-16T11:10:24;6.70;99.90
23579;DHT22;11967;50.852;4.400;2024-01-16T11:12:51;7.00;99.90
23579;DHT22;11967;50.852;4.400;2024-01-16T11:15:18;6.90;99.90
23579;DHT22;11967;50.852;4.400;2024-01-16T11:17:44;6.90;99.90
23579;DHT22;11967;50.852;4.400;2024-01-16T11:20:12;7.10;99.90
23579;DHT22;11967;50.852;4.400;2024-01-16T11:22:41;7.40;99.90
23579;DHT22;11967;50.852;4.400;2024-01-16T11:25:10;7.70;99.90
23579;DHT22;11967;50.852;4.400;2024-01-16T11:27:41;7.60;99.90
23579;DHT22;11967;50.852;4.400;2024-01-16T11:30:08;7.60;99.90
23579;DHT22;11967;50.852;4.400;2024-01-16T11:32:36;7.60;99.90
23579;DHT22;11967;50.852;4.400;2024-01-16T11:35:06;7.70;99.90
23579;DHT22;11967;50.852;4.400;2024-01-16T11:37:33;7.70;99.90
23579;DHT22;11967;50.852;4.400;2024-01-16T11:42:47;7.80;99.90
23579;DHT22;11967;50.852;4.400;2024-01-16T11:48:12;8.10;99.90
23579;DHT22;11967;50.852;4.400;2024-01-16T11:50:38;8.20;99.90
23579;DHT22;11967;50.852;4.400;2024-01-16T11:53:04;8.40;99.90
23579;DHT22;11967;50.852;4.400;2024-01-16T11:55:34;8.50;99.90
23579;DHT22;11967;50.852;4.400;2024-01-16T12:00:35;8.60;99.90
23579;DHT22;11967;50.852;4.400;2024-01-16T12:03:03;8.80;99.90
23579;DHT22;11967;50.852;4.400;2024-01-16T12:05:29;8.80;99.90
23579;DHT22;11967;50.852;4.400;2024-01-16T12:07:55;8.70;99.90
23579;DHT22;11967;50.852;4.400;2024-01-16T12:10:22;8.80;99.90
23579;DHT22;11967;50.852;4.400;2024-01-16T12:12:48;8.90;99.90
23579;DHT22;11967;50.852;4.400;2024-01-16T12:15:19;8.90;99.90
23579;DHT22;11967;50.852;4.400;2024-01-16T12:18:01;9.10;99.90
23579;DHT22;11967;50.852;4.400;2024-01-16T12:20:30;9.10;99.90
23579;DHT22;11967;50.852;4.400;2024-01-16T12:23:03;8.90;99.90
23579;DHT22;11967;50.852;4.400;2024-01-16T12:25:38;8.90;99.90
23579;DHT22;11967;50.852;4.400;2024-01-16T12:28:05;8.90;99.90
23579;DHT22;11967;50.852;4.400;2024-01-16T12:30:33;8.90;99.90
23579;DHT22;11967;50.852;4.400;2024-01-16T12:33:13;9.10;99.90
23579;DHT22;11967;50.852;4.400;2024-01-16T12:35:40;9.30;99.90
23579;DHT22;11967;50.852;4.400;2024-01-16T12:38:07;9.40;99.90
23579;DHT22;11967;50.852;4.400;2024-01-16T12:40:49;9.30;99.90
23579;DHT22;11967;50.852;4.400;2024-01-16T12:43:17;9.40;99.90
23579;DHT22;11967;50.852;4.400;2024-01-16T12:45:44;9.30;99.90
23579;DHT22;11967;50.852;4.400;2024-01-16T12:48:10;9.20;99.90
23579;DHT22;11967;50.852;4.400;2024-01-16T12:50:36;9.30;99.90
23579;DHT22;11967;50.852;4.400;2024-01-16T12:53:07;9.40;99.90
23579;DHT22;11967;50.852;4.400;2024-01-16T12:55:35;9.40;99.90
23579;DHT22;11967;50.852;4.400;2024-01-16T13:00:45;9.60;99.90
23579;DHT22;11967;50.852;4.400;2024-01-16T13:03:15;9.60;99.90
23579;DHT22;11967;50.852;4.400;2024-01-16T13:05:42;9.80;99.90
23579;DHT22;11967;50.852;4.400;2024-01-16T13:08:08;10.10;99.90
23579;DHT22;11967;50.852;4.400;2024-01-16T13:10:34;10.30;99.90
23579;DHT22;11967;50.852;4.400;2024-01-16T13:13:17;10.40;99.90
23579;DHT22;11967;50.852;4.400;2024-01-16T13:15:46;10.50;99.90
23579;DHT22;11967;50.852;4.400;2024-01-16T13:18:25;10.40;99.90
23579;DHT22;11967;50.852;4.400;2024-01-16T13:20:53;10.50;99.90
23579;DHT22;11967;50.852;4.400;2024-01-16T13:23:19;10.70;99.90
23579;DHT22;11967;50.852;4.400;2024-01-16T13:25:46;10.90;99.90
23579;DHT22;11967;50.852;4.400;2024-01-16T13:28:13;10.90;99.90
23579;DHT22;11967;50.852;4.400;2024-01-16T13:30:42;11.30;99.90
23579;DHT22;11967;50.852;4.400;2024-01-16T13:33:08;11.40;99.90
23579;DHT22;11967;50.852;4.400;2024-01-16T13:35:37;11.60;99.60
23579;DHT22;11967;50.852;4.400;2024-01-16T13:38:05;12.00;97.80
23579;DHT22;11967;50.852;4.400;2024-01-16T13:40:31;11.80;97.60
23579;DHT22;11967;50.852;4.400;2024-01-16T13:42:56;11.90;98.10
23579;DHT22;11967;50.852;4.400;2024-01-16T13:45:22;12.10;96.00
23579;DHT22;11967;50.852;4.400;2024-01-16T13:47:48;12.10;95.90
23579;DHT22;11967;50.852;4.400;2024-01-16T13:50:14;12.30;96.10
23579;DHT22;11967;50.852;4.400;2024-01-16T13:52:40;12.20;95.40
23579;DHT22;11967;50.852;4.400;2024-01-16T13:55:06;12.30;94.60
23579;DHT22;11967;50.852;4.400;2024-01-16T13:57:32;12.30;94.30
23579;DHT22;11967;50.852;4.400;2024-01-16T14:00:00;12.10;93.90
23579;DHT22;11967;50.852;4.400;2024-01-16T14:02:26;11.80;93.70
23579;DHT22;11967;50.852;4.400;2024-01-16T14:04:51;11.50;93.90
23579;DHT22;11967;50.852;4.400;2024-01-16T14:07:17;11.40;95.30
23579;DHT22;11967;50.852;4.400;2024-01-16T14:09:44;11.20;95.60
23579;DHT22;11967;50.852;4.400;2024-01-16T14:12:11;11.10;96.20
23579;DHT22;11967;50.852;4.400;2024-01-16T14:14:40;10.80;95.80
23579;DHT22;11967;50.852;4.400;2024-01-16T14:17:06;10.50;95.90
23579;DHT22;11967;50.852;4.400;2024-01-16T14:19:34;10.10;96.50
23579;DHT22;11967;50.852;4.400;2024-01-16T14:22:00;10.00;97.40
23579;DHT22;11967;50.852;4.400;2024-01-16T14:24:25;9.70;97.60
23579;DHT22;11967;50.852;4.400;2024-01-16T14:26:51;9.70;98.10
23579;DHT22;11967;50.852;4.400;2024-01-16T14:29:16;9.70;97.70
23579;DHT22;11967;50.852;4.400;2024-01-16T14:31:44;9.60;97.10
23579;DHT22;11967;50.852;4.400;2024-01-16T14:34:14;9.60;98.00
23579;DHT22;11967;50.852;4.400;2024-01-16T14:36:41;9.30;98.30
23579;DHT22;11967;50.852;4.400;2024-01-16T14:39:07;9.20;99.00
23579;DHT22;11967;50.852;4.400;2024-01-16T14:41:39;9.20;98.70
23579;DHT22;11967;50.852;4.400;2024-01-16T14:44:04;9.20;99.10
23579;DHT22;11967;50.852;4.400;2024-01-16T14:46:31;9.30;99.10
23579;DHT22;11967;50.852;4.400;2024-01-16T14:48:58;9.30;99.20
23579;DHT22;11967;50.852;4.400;2024-01-16T14:51:24;9.50;99.60
23579;DHT22;11967;50.852;4.400;2024-01-16T14:53:49;9.50;99.00
23579;DHT22;11967;50.852;4.400;2024-01-16T14:56:15;9.40;98.80
23579;DHT22;11967;50.852;4.400;2024-01-16T14:58:40;9.30;98.80
23579;DHT22;11967;50.852;4.400;2024-01-16T15:01:06;9.20;99.20
23579;DHT22;11967;50.852;4.400;2024-01-16T15:03:32;9.10;99.50
23579;DHT22;11967;50.852;4.400;2024-01-16T15:05:58;8.90;99.80
23579;DHT22;11967;50.852;4.400;2024-01-16T15:08:23;9.00;99.60
23579;DHT22;11967;50.852;4.400;2024-01-16T15:10:51;9.10;99.90
23579;DHT22;11967;50.852;4.400;2024-01-16T15:13:17;9.10;99.70
23579;DHT22;11967;50.852;4.400;2024-01-16T15:15:42;9.10;99.20
23579;DHT22;11967;50.852;4.400;2024-01-16T15:18:08;9.00;99.20
23579;DHT22;11967;50.852;4.400;2024-01-16T15:20:34;9.00;99.10
23579;DHT22;11967;50.852;4.400;2024-01-16T15:22:59;9.00;99.50
23579;DHT22;11967;50.852;4.400;2024-01-16T15:25:25;8.80;99.80
23579;DHT22;11967;50.852;4.400;2024-01-16T15:27:54;8.70;99.90
23579;DHT22;11967;50.852;4.400;2024-01-16T15:30:20;8.70;99.90
23579;DHT22;11967;50.852;4.400;2024-01-16T15:32:47;8.70;99.90
23579;DHT22;11967;50.852;4.400;2024-01-16T15:35:14;8.70;99.90
23579;DHT22;11967;50.852;4.400;2024-01-16T15:37:41;8.70;99.90
23579;DHT22;11967;50.852;4.400;2024-01-16T15:40:08;8.50;99.90
23579;DHT22;11967;50.852;4.400;2024-01-16T15:42:34;8.50;99.90
23579;DHT22;11967;50.852;4.400;2024-01-16T15:45:05;8.50;99.90
23579;DHT22;11967;50.852;4.400;2024-01-16T15:47:37;8.30;99.90
23579;DHT22;11967;50.852;4.400;2024-01-16T15:50:04;8.30;99.90
23579;DHT22;11967;50.852;4.400;2024-01-16T15:52:30;8.20;99.90